sensor_id;sensor_type;location;lat;lon;timestamp;pressure;altitude;pressure_sealevel;temperature;humidity
70229;BME280;57617;51.988;5.854;2022-11-15T00:01:25;100422.66;;;10.55;71.62
70229;BME280;57617;51.988;5.854;2022-11-15T00:03:51;100424.03;;;10.57;71.61
70229;BME280;57617;51.988;5.854;2022-11-15T00:06:16;100427.31;;;10.59;71.68
70229;BME280;57617;51.988;5.854;2022-11-15T00:08:42;100422.72;;;10.60;71.81
70229;BME280;57617;51.988;5.854;2022-11-15T00:11:09;100388.69;;;10.36;72.12
70229;BME280;57617;51.988;5.854;2022-11-15T00:13:35;100416.22;;;10.61;72.14
70229;BME280;57617;51.988;5.854;2022-11-15T00:16:01;100416.78;;;10.63;71.82
70229;BME280;57617;51.988;5.854;2022-11-15T00:18:27;100415.38;;;10.60;72.10
70229;BME280;57617;51.988;5.854;2022-11-15T00:20:53;100416.78;;;10.63;72.44
70229;BME280;57617;51.988;5.854;2022-11-15T00:23:18;100413.81;;;10.64;72.39
70229;BME280;57617;51.988;5.854;2022-11-15T00:25:44;100410.00;;;10.65;72.25
70229;BME280;57617;51.988;5.854;2022-11-15T00:28:09;100410.00;;;10.65;72.32
70229;BME280;57617;51.988;5.854;2022-11-15T00:30:34;100401.88;;;10.65;72.24
70229;BME280;57617;51.988;5.854;2022-11-15T00:33:03;100404.81;;;10.64;72.73
70229;BME280;57617;51.988;5.854;2022-11-15T00:35:31;100404.03;;;10.63;72.65
70229;BME280;57617;51.988;5.854;2022-11-15T00:37:57;100393.97;;;10.64;72.85
70229;BME280;57617;51.988;5.854;2022-11-15T00:40:22;100390.75;;;10.67;72.85
70229;BME280;57617;51.988;5.854;2022-11-15T00:42:47;100392.72;;;10.71;72.73
70229;BME280;57617;51.988;5.854;2022-11-15T00:45:12;100396.00;;;10.73;72.76
70229;BME280;57617;51.988;5.854;2022-11-15T00:47:38;100393.03;;;10.75;72.89
70229;BME280;57617;51.988;5.854;2022-11-15T00:50:04;100391.44;;;10.79;72.51
70229;BME280;57617;51.988;5.854;2022-11-15T00:52:29;100393.38;;;10.78;72.80
70229;BME280;57617;51.988;5.854;2022-11-15T00:54:54;100392.22;;;10.74;72.42
70229;BME280;57617;51.988;5.854;2022-11-15T00:57:20;100390.25;;;10.70;72.86
70229;BME280;57617;51.988;5.854;2022-11-15T00:59:45;100382.09;;;10.70;72.85
70229;BME280;57617;51.988;5.854;2022-11-15T01:02:10;100393.84;;;10.75;72.93
70229;BME280;57617;51.988;5.854;2022-11-15T01:04:35;100390.31;;;10.75;73.14
70229;BME280;57617;51.988;5.854;2022-11-15T01:07:01;100382.75;;;10.77;73.23
70229;BME280;57617;51.988;5.854;2022-11-15T01:09:26;100368.91;;;10.78;72.94
70229;BME280;57617;51.988;5.854;2022-11-15T01:11:52;100369.16;;;10.77;73.18
70229;BME280;57617;51.988;5.854;2022-11-15T01:14:17;100359.44;;;10.81;73.18
70229;BME280;57617;51.988;5.854;2022-11-15T01:16:42;100364.34;;;10.84;73.19
70229;BME280;57617;51.988;5.854;2022-11-15T01:19:08;100373.88;;;10.86;73.25
70229;BME280;57617;51.988;5.854;2022-11-15T01:21:33;100366.81;;;10.85;73.05
70229;BME280;57617;51.988;5.854;2022-11-15T01:23:58;100360.88;;;10.88;73.12
70229;BME280;57617;51.988;5.854;2022-11-15T01:26:24;100362.00;;;10.92;73.22
70229;BME280;57617;51.988;5.854;2022-11-15T01:28:50;100354.44;;;10.94;73.12
70229;BME280;57617;51.988;5.854;2022-11-15T01:31:17;100352.53;;;10.95;73.26
70229;BME280;57617;51.988;5.854;2022-11-15T01:33:43;100345.75;;;10.97;73.16
70229;BME280;57617;51.988;5.854;2022-11-15T01:36:15;100347.97;;;11.00;73.28
70229;BME280;57617;51.988;5.854;2022-11-15T01:38:41;100346.66;;;11.03;73.17
70229;BME280;57617;51.988;5.854;2022-11-15T01:41:11;100335.78;;;11.03;73.03
70229;BME280;57617;51.988;5.854;2022-11-15T01:43:39;100335.22;;;11.01;73.51
70229;BME280;57617;51.988;5.854;2022-11-15T01:46:35;100338.25;;;11.04;73.71
70229;BME280;57617;51.988;5.854;2022-11-15T01:49:12;100336.34;;;11.05;73.37
70229;BME280;57617;51.988;5.854;2022-11-15T01:51:39;100343.16;;;11.07;73.23
70229;BME280;57617;51.988;5.854;2022-11-15T01:54:08;100341.03;;;11.09;73.39
70229;BME280;57617;51.988;5.854;2022-11-15T01:56:43;100335.59;;;11.09;73.68
70229;BME280;57617;51.988;5.854;2022-11-15T01:59:10;100327.94;;;11.06;73.20
70229;BME280;57617;51.988;5.854;2022-11-15T02:01:37;100328.81;;;11.12;73.42
70229;BME280;57617;51.988;5.854;2022-11-15T02:04:10;100336.19;;;11.16;73.85
70229;BME280;57617;51.988;5.854;2022-11-15T02:06:38;100334.03;;;11.18;73.80
70229;BME280;57617;51.988;5.854;2022-11-15T02:09:04;100330.25;;;11.19;73.42
70229;BME280;57617;51.988;5.854;2022-11-15T02:11:29;100335.16;;;11.22;73.38
70229;BME280;57617;51.988;5.854;2022-11-15T02:13:56;100331.88;;;11.20;73.87
70229;BME280;57617;51.988;5.854;2022-11-15T02:16:36;100327.31;;;11.26;73.90
70229;BME280;57617;51.988;5.854;2022-11-15T02:24:57;100320.03;;;11.31;74.32
70229;BME280;57617;51.988;5.854;2022-11-15T02:27:53;100322.25;;;11.34;74.27
70229;BME280;57617;51.988;5.854;2022-11-15T02:30:34;100316.53;;;11.36;73.85
70229;BME280;57617;51.988;5.854;2022-11-15T02:33:31;100315.47;;;11.37;74.76
70229;BME280;57617;51.988;5.854;2022-11-15T02:36:01;100313.56;;;11.37;73.81
70229;BME280;57617;51.988;5.854;2022-11-15T02:39:03;100309.81;;;11.43;74.39
70229;BME280;57617;51.988;5.854;2022-11-15T02:44:23;100292.97;;;11.46;74.84
70229;BME280;57617;51.988;5.854;2022-11-15T02:46:54;100289.72;;;11.44;74.20
70229;BME280;57617;51.988;5.854;2022-11-15T02:49:48;100293.81;;;11.47;74.54
70229;BME280;57617;51.988;5.854;2022-11-15T02:52:19;100291.41;;;11.50;73.90
70229;BME280;57617;51.988;5.854;2022-11-15T02:54:58;100289.47;;;11.51;75.10
70229;BME280;57617;51.988;5.854;2022-11-15T03:00:05;100278.88;;;11.54;75.15
70229;BME280;57617;51.988;5.854;2022-11-15T03:03:03;100277.28;;;11.58;75.31
70229;BME280;57617;51.988;5.854;2022-11-15T03:05:53;100280.34;;;11.62;75.48
70229;BME280;57617;51.988;5.854;2022-11-15T03:11:16;100267.31;;;11.64;75.84
70229;BME280;57617;51.988;5.854;2022-11-15T03:14:07;100267.06;;;11.65;75.72
70229;BME280;57617;51.988;5.854;2022-11-15T03:19:40;100260.03;;;11.74;75.83
70229;BME280;57617;51.988;5.854;2022-11-15T03:22:11;100267.69;;;11.77;74.99
70229;BME280;57617;51.988;5.854;2022-11-15T03:24:37;100264.97;;;11.77;74.87
70229;BME280;57617;51.988;5.854;2022-11-15T03:27:05;100265.50;;;11.79;75.01
70229;BME280;57617;51.988;5.854;2022-11-15T03:29:35;100259.31;;;11.84;74.98
70229;BME280;57617;51.988;5.854;2022-11-15T03:32:07;100259.06;;;11.85;75.45
70229;BME280;57617;51.988;5.854;2022-11-15T03:34:41;100260.13;;;11.89;75.33
70229;BME280;57617;51.988;5.854;2022-11-15T03:37:11;100263.44;;;11.91;75.12
70229;BME280;57617;51.988;5.854;2022-11-15T03:39:38;100268.09;;;11.96;75.44
70229;BME280;57617;51.988;5.854;2022-11-15T03:42:21;100254.75;;;11.99;76.22
70229;BME280;57617;51.988;5.854;2022-11-15T03:50:12;100276.06;;;12.12;76.55
70229;BME280;57617;51.988;5.854;2022-11-15T03:52:39;100269.03;;;12.16;75.64
70229;BME280;57617;51.988;5.854;2022-11-15T03:55:09;100275.03;;;12.18;75.98
70229;BME280;57617;51.988;5.854;2022-11-15T03:57:35;100259.53;;;12.24;75.58
70229;BME280;57617;51.988;5.854;2022-11-15T04:00:00;100268.53;;;12.29;75.78
70229;BME280;57617;51.988;5.854;2022-11-15T04:02:25;100267.44;;;12.30;75.64
70229;BME280;57617;51.988;5.854;2022-11-15T04:04:51;100270.19;;;12.35;76.08
70229;BME280;57617;51.988;5.854;2022-11-15T04:07:16;100268.03;;;12.37;75.98
70229;BME280;57617;51.988;5.854;2022-11-15T04:09:41;100269.69;;;12.43;76.17
70229;BME280;57617;51.988;5.854;2022-11-15T04:12:25;100275.44;;;12.47;76.22
70229;BME280;57617;51.988;5.854;2022-11-15T04:15:05;100275.72;;;12.50;76.03
70229;BME280;57617;51.988;5.854;2022-11-15T04:17:39;100281.44;;;12.54;75.75
70229;BME280;57617;51.988;5.854;2022-11-15T04:20:10;100270.84;;;12.57;76.01
70229;BME280;57617;51.988;5.854;2022-11-15T04:22:56;100266.78;;;12.60;76.27
70229;BME280;57617;51.988;5.854;2022-11-15T04:25:41;100261.59;;;12.63;76.32
70229;BME280;57617;51.988;5.854;2022-11-15T04:28:06;100262.72;;;12.67;76.29
70229;BME280;57617;51.988;5.854;2022-11-15T04:30:32;100257.53;;;12.71;76.09
70229;BME280;57617;51.988;5.854;2022-11-15T04:32:57;100257.00;;;12.74;76.37
70229;BME280;57617;51.988;5.854;2022-11-15T04:35:22;100263.00;;;12.76;76.10
70229;BME280;57617;51.988;5.854;2022-11-15T04:37:48;100266.00;;;12.79;76.53
70229;BME280;57617;51.988;5.854;2022-11-15T04:40:13;100262.72;;;12.82;76.44
70229;BME280;57617;51.988;5.854;2022-11-15T04:42:41;100261.09;;;12.81;76.53
70229;BME280;57617;51.988;5.854;2022-11-15T04:45:08;100267.13;;;12.83;75.93
70229;BME280;57617;51.988;5.854;2022-11-15T04:47:33;100257.59;;;12.86;76.49
70229;BME280;57617;51.988;5.854;2022-11-15T04:49:58;100255.66;;;12.86;75.88
70229;BME280;57617;51.988;5.854;2022-11-15T04:52:24;100266.03;;;12.89;76.61
70229;BME280;57617;51.988;5.854;2022-11-15T04:54:49;100269.03;;;12.88;76.50
70229;BME280;57617;51.988;5.854;2022-11-15T04:57:15;100265.47;;;12.92;77.00
70229;BME280;57617;51.988;5.854;2022-11-15T04:59:40;100267.47;;;12.97;76.69
70229;BME280;57617;51.988;5.854;2022-11-15T05:02:05;100267.47;;;12.97;76.41
70229;BME280;57617;51.988;5.854;2022-11-15T05:04:31;100263.38;;;12.99;76.74
70229;BME280;57617;51.988;5.854;2022-11-15T05:06:56;100259.00;;;12.98;76.76
70229;BME280;57617;51.988;5.854;2022-11-15T05:09:21;100272.09;;;13.01;76.41
70229;BME280;57617;51.988;5.854;2022-11-15T05:11:47;100264.75;;;13.02;76.53
70229;BME280;57617;51.988;5.854;2022-11-15T05:14:13;100265.00;;;13.05;76.61
70229;BME280;57617;51.988;5.854;2022-11-15T05:16:39;100239.06;;;12.93;77.15
70229;BME280;57617;51.988;5.854;2022-11-15T05:19:04;100264.19;;;13.10;77.00
70229;BME280;57617;51.988;5.854;2022-11-15T05:21:31;100262.03;;;13.12;77.08
70229;BME280;57617;51.988;5.854;2022-11-15T05:23:56;100250.03;;;13.13;76.73
70229;BME280;57617;51.988;5.854;2022-11-15T05:26:22;100241.31;;;13.11;76.91
70229;BME280;57617;51.988;5.854;2022-11-15T05:28:55;100250.88;;;13.18;77.45
70229;BME280;57617;51.988;5.854;2022-11-15T05:31:20;100254.13;;;13.20;76.80
70229;BME280;57617;51.988;5.854;2022-11-15T05:33:46;100248.94;;;13.24;77.12
70229;BME280;57617;51.988;5.854;2022-11-15T05:38:43;100247.59;;;13.21;76.81
70229;BME280;57617;51.988;5.854;2022-11-15T05:41:09;100253.88;;;13.27;76.66
70229;BME280;57617;51.988;5.854;2022-11-15T05:43:37;100254.66;;;13.27;77.16
70229;BME280;57617;51.988;5.854;2022-11-15T05:46:04;100257.13;;;13.29;76.80
70229;BME280;57617;51.988;5.854;2022-11-15T05:48:30;100261.50;;;13.30;76.79
70229;BME280;57617;51.988;5.854;2022-11-15T05:50:56;100262.31;;;13.30;77.00
70229;BME280;57617;51.988;5.854;2022-11-15T05:53:22;100258.22;;;13.33;76.96
70229;BME280;57617;51.988;5.854;2022-11-15T05:55:50;100258.50;;;13.36;nan
70229;BME280;57617;51.988;5.854;2022-11-15T05:58:16;100261.22;;;13.36;77.19
70229;BME280;57617;51.988;5.854;2022-11-15T06:00:42;100254.94;;;13.36;76.97
70229;BME280;57617;51.988;5.854;2022-11-15T06:03:08;100276.50;;;13.37;77.38
70229;BME280;57617;51.988;5.854;2022-11-15T06:05:34;100267.50;;;13.37;77.17
70229;BME280;57617;51.988;5.854;2022-11-15T06:07:59;100274.59;;;13.38;77.69
70229;BME280;57617;51.988;5.854;2022-11-15T06:10:25;100280.31;;;13.41;77.36
70229;BME280;57617;51.988;5.854;2022-11-15T06:13:02;100278.13;;;13.43;77.82
70229;BME280;57617;51.988;5.854;2022-11-15T06:15:27;100272.97;;;13.42;77.68
70229;BME280;57617;51.988;5.854;2022-11-15T06:17:56;100272.69;;;13.43;77.19
70229;BME280;57617;51.988;5.854;2022-11-15T06:20:26;100275.41;;;13.43;77.47
70229;BME280;57617;51.988;5.854;2022-11-15T06:22:59;100272.16;;;13.46;77.73
70229;BME280;57617;51.988;5.854;2022-11-15T06:25:25;100268.31;;;13.47;77.08
70229;BME280;57617;51.988;5.854;2022-11-15T06:27:52;100266.69;;;13.46;77.17
70229;BME280;57617;51.988;5.854;2022-11-15T06:30:17;100270.78;;;13.49;77.30
70229;BME280;57617;51.988;5.854;2022-11-15T06:32:42;100275.72;;;13.52;77.67
70229;BME280;57617;51.988;5.854;2022-11-15T06:35:08;100270.78;;;13.54;77.57
70229;BME280;57617;51.988;5.854;2022-11-15T06:37:33;100268.31;;;13.52;77.10
70229;BME280;57617;51.988;5.854;2022-11-15T06:39:58;100275.16;;;13.55;77.23
70229;BME280;57617;51.988;5.854;2022-11-15T06:42:24;100277.88;;;13.55;77.71
70229;BME280;57617;51.988;5.854;2022-11-15T06:44:49;100286.63;;;13.57;77.76
70229;BME280;57617;51.988;5.854;2022-11-15T06:47:14;100287.44;;;13.57;77.44
70229;BME280;57617;51.988;5.854;2022-11-15T06:49:39;100284.44;;;13.59;77.34
70229;BME280;57617;51.988;5.854;2022-11-15T06:52:05;100283.34;;;13.60;77.25
70229;BME280;57617;51.988;5.854;2022-11-15T06:54:30;100284.97;;;13.61;77.41
70229;BME280;57617;51.988;5.854;2022-11-15T06:56:55;100284.16;;;13.60;77.23
70229;BME280;57617;51.988;5.854;2022-11-15T06:59:20;100284.69;;;13.57;77.34
70229;BME280;57617;51.988;5.854;2022-11-15T07:01:45;100286.88;;;13.60;77.26
70229;BME280;57617;51.988;5.854;2022-11-15T07:04:11;100297.53;;;13.62;77.20
70229;BME280;57617;51.988;5.854;2022-11-15T07:06:36;100297.25;;;13.63;77.40
70229;BME280;57617;51.988;5.854;2022-11-15T07:09:02;100290.72;;;13.64;77.37
70229;BME280;57617;51.988;5.854;2022-11-15T07:11:28;100302.44;;;13.65;77.26
70229;BME280;57617;51.988;5.854;2022-11-15T07:13:53;100304.91;;;13.61;77.26
70229;BME280;57617;51.988;5.854;2022-11-15T07:16:18;100307.63;;;13.61;77.68
70229;BME280;57617;51.988;5.854;2022-11-15T07:18:44;100296.72;;;13.56;77.69
70229;BME280;57617;51.988;5.854;2022-11-15T07:21:10;100301.91;;;13.58;77.56
70229;BME280;57617;51.988;5.854;2022-11-15T07:23:37;100308.72;;;13.55;77.85
70229;BME280;57617;51.988;5.854;2022-11-15T07:26:06;100312.81;;;13.58;77.78
70229;BME280;57617;51.988;5.854;2022-11-15T07:28:32;100319.91;;;13.59;77.50
70229;BME280;57617;51.988;5.854;2022-11-15T07:30:57;100321.81;;;13.58;77.09
70229;BME280;57617;51.988;5.854;2022-11-15T07:33:23;100318.53;;;13.56;77.17
70229;BME280;57617;51.988;5.854;2022-11-15T07:35:48;100314.44;;;13.59;77.28
70229;BME280;57617;51.988;5.854;2022-11-15T07:38:13;100312.81;;;13.58;77.13
70229;BME280;57617;51.988;5.854;2022-11-15T07:40:40;100321.25;;;13.56;77.67
70229;BME280;57617;51.988;5.854;2022-11-15T07:43:07;100318.28;;;13.58;77.47
70229;BME280;57617;51.988;5.854;2022-11-15T07:45:33;100316.91;;;13.60;77.60
70229;BME280;57617;51.988;5.854;2022-11-15T07:47:59;100313.09;;;13.61;77.12
70229;BME280;57617;51.988;5.854;2022-11-15T07:50:26;100319.91;;;13.64;77.62
70229;BME280;57617;51.988;5.854;2022-11-15T07:52:54;100320.44;;;13.66;77.52
70229;BME280;57617;51.988;5.854;2022-11-15T07:55:20;100323.47;;;13.64;77.16
70229;BME280;57617;51.988;5.854;2022-11-15T07:57:45;100317.72;;;13.66;77.57
70229;BME280;57617;51.988;5.854;2022-11-15T08:00:11;100316.09;;;13.70;77.52
70229;BME280;57617;51.988;5.854;2022-11-15T08:02:37;100317.44;;;13.72;77.52
70229;BME280;57617;51.988;5.854;2022-11-15T08:05:02;100312.00;;;13.72;76.95
70229;BME280;57617;51.988;5.854;2022-11-15T08:07:29;100313.88;;;13.72;77.18
70229;BME280;57617;51.988;5.854;2022-11-15T08:09:55;100319.91;;;13.74;77.07
70229;BME280;57617;51.988;5.854;2022-11-15T08:12:21;100316.34;;;13.73;76.86
70229;BME280;57617;51.988;5.854;2022-11-15T08:14:47;100312.53;;;13.74;77.29
70229;BME280;57617;51.988;5.854;2022-11-15T08:17:12;100309.78;;;13.74;77.30
70229;BME280;57617;51.988;5.854;2022-11-15T08:19:37;100306.00;;;13.75;77.27
70229;BME280;57617;51.988;5.854;2022-11-15T08:22:02;100303.78;;;13.77;76.95
70229;BME280;57617;51.988;5.854;2022-11-15T08:24:28;100303.25;;;13.75;77.47
70229;BME280;57617;51.988;5.854;2022-11-15T08:26:53;100303.25;;;13.75;77.03
70229;BME280;57617;51.988;5.854;2022-11-15T08:29:18;100304.63;;;13.73;77.50
70229;BME280;57617;51.988;5.854;2022-11-15T08:31:43;100298.88;;;13.74;77.31
70229;BME280;57617;51.988;5.854;2022-11-15T08:34:09;100299.44;;;13.76;nan
70229;BME280;57617;51.988;5.854;2022-11-15T08:36:34;100297.50;;;13.77;77.84
70229;BME280;57617;51.988;5.854;2022-11-15T08:38:59;100305.16;;;13.80;77.43
70229;BME280;57617;51.988;5.854;2022-11-15T08:41:28;100298.34;;;13.82;77.13
70229;BME280;57617;51.988;5.854;2022-11-15T08:43:55;100295.06;;;13.80;77.11
70229;BME280;57617;51.988;5.854;2022-11-15T08:46:21;100293.72;;;13.83;77.26
70229;BME280;57617;51.988;5.854;2022-11-15T08:48:46;100299.69;;;13.85;77.26
70229;BME280;57617;51.988;5.854;2022-11-15T08:51:11;100296.72;;;13.81;77.55
70229;BME280;57617;51.988;5.854;2022-11-15T08:53:37;100303.25;;;13.85;77.18
70229;BME280;57617;51.988;5.854;2022-11-15T08:56:02;100306.53;;;13.87;77.38
70229;BME280;57617;51.988;5.854;2022-11-15T08:58:31;100313.34;;;13.90;77.34
70229;BME280;57617;51.988;5.854;2022-11-15T09:00:57;100314.44;;;13.89;77.45
70229;BME280;57617;51.988;5.854;2022-11-15T09:03:22;100309.50;;;13.91;77.40
70229;BME280;57617;51.988;5.854;2022-11-15T09:05:48;100306.78;;;13.91;77.46
70229;BME280;57617;51.988;5.854;2022-11-15T09:08:13;100298.31;;;13.92;77.73
70229;BME280;57617;51.988;5.854;2022-11-15T09:10:39;100293.97;;;13.91;77.34
70229;BME280;57617;51.988;5.854;2022-11-15T09:13:04;100299.41;;;13.96;77.25
70229;BME280;57617;51.988;5.854;2022-11-15T09:15:29;100295.06;;;13.95;77.65
70229;BME280;57617;51.988;5.854;2022-11-15T09:17:58;100301.59;;;13.94;77.73
70229;BME280;57617;51.988;5.854;2022-11-15T09:20:24;100287.41;;;13.92;77.54
70229;BME280;57617;51.988;5.854;2022-11-15T09:22:49;100292.31;;;13.95;77.69
70229;BME280;57617;51.988;5.854;2022-11-15T09:25:15;100278.13;;;13.93;77.78
70229;BME280;57617;51.988;5.854;2022-11-15T09:27:40;100282.47;;;13.94;77.39
70229;BME280;57617;51.988;5.854;2022-11-15T09:30:06;100284.94;;;13.91;77.11
70229;BME280;57617;51.988;5.854;2022-11-15T09:32:31;100273.22;;;13.90;77.14
70229;BME280;57617;51.988;5.854;2022-11-15T09:34:57;100270.50;;;13.90;77.21
70229;BME280;57617;51.988;5.854;2022-11-15T09:37:22;100271.03;;;13.92;77.11
70229;BME280;57617;51.988;5.854;2022-11-15T09:39:47;100261.72;;;13.93;76.95
70229;BME280;57617;51.988;5.854;2022-11-15T09:42:25;100271.28;;;13.96;77.28
70229;BME280;57617;51.988;5.854;2022-11-15T09:50:11;100265.53;;;14.02;77.21
70229;BME280;57617;51.988;5.854;2022-11-15T09:52:39;100260.34;;;13.96;76.19
70229;BME280;57617;51.988;5.854;2022-11-15T09:55:09;100269.91;;;14.03;76.88
70229;BME280;57617;51.988;5.854;2022-11-15T09:57:43;100262.81;;;14.07;76.56
70229;BME280;57617;51.988;5.854;2022-11-15T10:00:21;100249.69;;;14.04;76.48
70229;BME280;57617;51.988;5.854;2022-11-15T10:02:58;100255.72;;;14.06;76.04
70229;BME280;57617;51.988;5.854;2022-11-15T10:05:28;100240.97;;;13.97;76.58
70229;BME280;57617;51.988;5.854;2022-11-15T10:11:00;100252.41;;;14.09;76.23
70229;BME280;57617;51.988;5.854;2022-11-15T10:13:35;100246.41;;;14.07;76.04
70229;BME280;57617;51.988;5.854;2022-11-15T10:16:16;100243.16;;;14.05;75.31
70229;BME280;57617;51.988;5.854;2022-11-15T10:18:54;100233.88;;;13.96;75.98
70229;BME280;57617;51.988;5.854;2022-11-15T10:24:19;100226.78;;;14.05;75.95
70229;BME280;57617;51.988;5.854;2022-11-15T10:26:48;100241.50;;;14.04;75.78
70229;BME280;57617;51.988;5.854;2022-11-15T10:29:24;100236.03;;;14.09;75.60
70229;BME280;57617;51.988;5.854;2022-11-15T10:31:49;100242.31;;;14.10;75.57
70229;BME280;57617;51.988;5.854;2022-11-15T10:34:20;100230.31;;;14.06;75.52
70229;BME280;57617;51.988;5.854;2022-11-15T10:36:47;100235.47;;;14.12;75.16
70229;BME280;57617;51.988;5.854;2022-11-15T10:39:18;100222.06;;;14.16;74.90
70229;BME280;57617;51.988;5.854;2022-11-15T10:41:44;100222.38;;;14.19;75.37
70229;BME280;57617;51.988;5.854;2022-11-15T10:49:25;100200.72;;;14.33;74.30
70229;BME280;57617;51.988;5.854;2022-11-15T10:54:48;100196.94;;;14.34;72.59
70229;BME280;57617;51.988;5.854;2022-11-15T10:57:15;100187.38;;;14.31;72.99
70229;BME280;57617;51.988;5.854;2022-11-15T10:59:48;100184.63;;;14.31;73.11
70229;BME280;57617;51.988;5.854;2022-11-15T11:05:03;100196.88;;;14.44;72.85
70229;BME280;57617;51.988;5.854;2022-11-15T11:07:31;100188.13;;;14.42;72.58
70229;BME280;57617;51.988;5.854;2022-11-15T11:10:05;100182.66;;;14.42;68.96
70229;BME280;57617;51.988;5.854;2022-11-15T11:12:41;100192.22;;;14.44;71.19
70229;BME280;57617;51.988;5.854;2022-11-15T11:15:12;100180.16;;;14.50;70.53
70229;BME280;57617;51.988;5.854;2022-11-15T11:25:56;100165.03;;;14.63;68.16
70229;BME280;57617;51.988;5.854;2022-11-15T11:28:48;100168.03;;;14.66;67.33
70229;BME280;57617;51.988;5.854;2022-11-15T11:31:29;100166.63;;;14.69;66.41
70229;BME280;57617;51.988;5.854;2022-11-15T11:34:09;100170.16;;;14.74;67.92
70229;BME280;57617;51.988;5.854;2022-11-15T11:37:49;100161.72;;;14.71;65.35
70229;BME280;57617;51.988;5.854;2022-11-15T11:48:14;100160.00;;;14.85;63.66
70229;BME280;57617;51.988;5.854;2022-11-15T11:50:45;100158.63;;;14.87;65.29
70229;BME280;57617;51.988;5.854;2022-11-15T11:53:28;100162.38;;;14.91;63.94
70229;BME280;57617;51.988;5.854;2022-11-15T11:56:14;100157.75;;;14.92;63.08
70229;BME280;57617;51.988;5.854;2022-11-15T11:58:43;100161.31;;;14.92;63.79
70229;BME280;57617;51.988;5.854;2022-11-15T12:01:15;100147.56;;;14.97;64.01
70229;BME280;57617;51.988;5.854;2022-11-15T12:03:49;100143.16;;;15.01;62.60
70229;BME280;57617;51.988;5.854;2022-11-15T12:06:30;100135.78;;;15.02;62.79
70229;BME280;57617;51.988;5.854;2022-11-15T12:11:55;100121.78;;;15.08;62.35
70229;BME280;57617;51.988;5.854;2022-11-15T12:14:28;100107.00;;;15.09;62.90
70229;BME280;57617;51.988;5.854;2022-11-15T12:16:55;100107.25;;;15.13;62.86
70229;BME280;57617;51.988;5.854;2022-11-15T12:19:20;100104.50;;;15.13;63.36
70229;BME280;57617;51.988;5.854;2022-11-15T12:22:13;100098.53;;;15.11;60.95
70229;BME280;57617;51.988;5.854;2022-11-15T12:24:50;100094.06;;;15.15;61.85
70229;BME280;57617;51.988;5.854;2022-11-15T12:27:20;100100.44;;;15.10;62.11
70229;BME280;57617;51.988;5.854;2022-11-15T12:29:58;100087.66;;;15.01;60.83
70229;BME280;57617;51.988;5.854;2022-11-15T12:32:39;100081.94;;;14.97;61.15
70229;BME280;57617;51.988;5.854;2022-11-15T12:35:40;100079.16;;;15.02;60.27
70229;BME280;57617;51.988;5.854;2022-11-15T12:38:11;100070.16;;;15.02;61.11
70229;BME280;57617;51.988;5.854;2022-11-15T12:40:39;100061.34;;;15.05;60.77
70229;BME280;57617;51.988;5.854;2022-11-15T12:43:38;100062.22;;;15.00;59.72
70229;BME280;57617;51.988;5.854;2022-11-15T12:46:08;100057.28;;;15.02;61.13
70229;BME280;57617;51.988;5.854;2022-11-15T12:51:01;100052.84;;;15.06;61.00
70229;BME280;57617;51.988;5.854;2022-11-15T12:53:31;100035.38;;;15.02;60.19
70229;BME280;57617;51.988;5.854;2022-11-15T12:56:17;100038.06;;;15.07;60.18
70229;BME280;57617;51.988;5.854;2022-11-15T12:59:06;100033.44;;;15.08;58.61
70229;BME280;57617;51.988;5.854;2022-11-15T13:04:22;100022.25;;;15.04;58.75
70229;BME280;57617;51.988;5.854;2022-11-15T13:07:03;100007.81;;;14.99;59.71
70229;BME280;57617;51.988;5.854;2022-11-15T13:12:01;100014.06;;;15.04;59.64
70229;BME280;57617;51.988;5.854;2022-11-15T13:19:48;99999.84;;;15.02;59.30
70229;BME280;57617;51.988;5.854;2022-11-15T13:22:14;99990.56;;;15.03;59.18
70229;BME280;57617;51.988;5.854;2022-11-15T13:25:00;99995.97;;;15.08;59.27
70229;BME280;57617;51.988;5.854;2022-11-15T13:27:25;99991.56;;;15.07;59.12
70229;BME280;57617;51.988;5.854;2022-11-15T13:29:52;99982.34;;;15.03;59.39
70229;BME280;57617;51.988;5.854;2022-11-15T13:32:18;99977.72;;;14.99;59.36
70229;BME280;57617;51.988;5.854;2022-11-15T13:34:45;99985.59;;;15.05;59.16
70229;BME280;57617;51.988;5.854;2022-11-15T13:37:32;99980.63;;;15.07;57.77
70229;BME280;57617;51.988;5.854;2022-11-15T13:42:52;99966.97;;;15.07;58.83
70229;BME280;57617;51.988;5.854;2022-11-15T13:45:18;99971.41;;;15.03;58.51
70229;BME280;57617;51.988;5.854;2022-11-15T13:47:44;99968.66;;;15.03;58.91
70229;BME280;57617;51.988;5.854;2022-11-15T13:50:11;99965.09;;;15.03;58.77
70229;BME280;57617;51.988;5.854;2022-11-15T13:52:37;99964.81;;;15.04;59.01
70229;BME280;57617;51.988;5.854;2022-11-15T13:55:25;99956.06;;;15.02;57.78
70229;BME280;57617;51.988;5.854;2022-11-15T13:57:54;99952.53;;;15.02;58.54
70229;BME280;57617;51.988;5.854;2022-11-15T14:00:32;99948.97;;;15.01;58.03
70229;BME280;57617;51.988;5.854;2022-11-15T14:03:07;99953.41;;;14.97;57.85
70229;BME280;57617;51.988;5.854;2022-11-15T14:05:33;99944.41;;;14.97;58.72
70229;BME280;57617;51.988;5.854;2022-11-15T14:08:02;99942.16;;;14.99;58.33
70229;BME280;57617;51.988;5.854;2022-11-15T14:10:36;99938.69;;;14.93;58.37
70229;BME280;57617;51.988;5.854;2022-11-15T14:13:03;99937.88;;;14.93;58.68
70229;BME280;57617;51.988;5.854;2022-11-15T14:15:33;99931.59;;;14.92;58.74
70229;BME280;57617;51.988;5.854;2022-11-15T14:17:59;99927.22;;;14.91;58.63
70229;BME280;57617;51.988;5.854;2022-11-15T14:22:55;99929.44;;;14.89;58.62
70229;BME280;57617;51.988;5.854;2022-11-15T14:25:22;99915.00;;;14.84;58.86
70229;BME280;57617;51.988;5.854;2022-11-15T14:30:49;99907.97;;;14.78;59.22